RKSY/SSN METAR and TAF weather

Enter ICAO airport designator
Station Type Date Time Source
RKSY METAR 2021/05/11 22:58 UTC NOAA

RKSY 112258Z AUTO 00000KT 9999 FEW075 19/02 A2992 RMK AO2 SLP135 T01920016 $


Station Type Date Time Source
RKSY Decoded METAR 2021/05/11 22:58 UTC NOAA

Yongsan / H-208 Hp, Korea, South (RKSY) 37-31N 126-59E
May 11, 2021 - 06:58 PM EDT / 2021.05.11 2258 UTC
Wind: Calm:0
Visibility: greater than 7 mile(s):0
Sky conditions: mostly clear
Temperature: 66.6 F (19.2 C)
Dew Point: 34.9 F (1.6 C)
Relative Humidity: 30%
Pressure (altimeter): 29.92 in. Hg (1013 hPa)
ob: RKSY 112258Z AUTO 00000KT 9999 FEW075 19/02 A2992 RMK AO2 SLP135 T01920016
cycle: 23

Station Type Date Time Source
RKSY TAF UTC NOAA

Error!

Example: see airport list